sensor_id;sensor_type;location;lat;lon;timestamp;pressure;altitude;pressure_sealevel;temperature;humidity
63088;BME280;49173;43.164;27.786;2024-02-15T00:01:54;100838.78;;;5.87;73.21
63088;BME280;49173;43.164;27.786;2024-02-15T00:04:20;100841.22;;;5.96;73.62
63088;BME280;49173;43.164;27.786;2024-02-15T00:06:45;100850.84;;;6.01;73.38
63088;BME280;49173;43.164;27.786;2024-02-15T00:09:11;100849.84;;;6.04;73.27
63088;BME280;49173;43.164;27.786;2024-02-15T00:11:36;100837.47;;;6.03;72.16
63088;BME280;49173;43.164;27.786;2024-02-15T00:14:04;100842.78;;;6.03;72.37
63088;BME280;49173;43.164;27.786;2024-02-15T00:16:30;100835.66;;;6.03;72.13
63088;BME280;49173;43.164;27.786;2024-02-15T00:18:55;100836.00;;;5.93;71.84
63088;BME280;49173;43.164;27.786;2024-02-15T00:21:21;100819.72;;;6.02;72.00
63088;BME280;49173;43.164;27.786;2024-02-15T00:23:48;100821.25;;;6.11;72.71
63088;BME280;49173;43.164;27.786;2024-02-15T00:26:14;100816.91;;;6.08;72.12
63088;BME280;49173;43.164;27.786;2024-02-15T00:28:41;100801.50;;;6.18;72.38
63088;BME280;49173;43.164;27.786;2024-02-15T00:31:06;100807.50;;;6.24;71.67
63088;BME280;49173;43.164;27.786;2024-02-15T00:33:33;100805.72;;;6.25;71.93
63088;BME280;49173;43.164;27.786;2024-02-15T00:35:59;100807.50;;;6.24;71.60
63088;BME280;49173;43.164;27.786;2024-02-15T00:38:24;100795.81;;;6.30;71.86
63088;BME280;49173;43.164;27.786;2024-02-15T00:40:51;100802.09;;;6.27;71.13
63088;BME280;49173;43.164;27.786;2024-02-15T00:43:16;100800.22;;;6.31;70.70
63088;BME280;49173;43.164;27.786;2024-02-15T00:45:42;100793.19;;;6.28;70.67
63088;BME280;49173;43.164;27.786;2024-02-15T00:48:07;100798.66;;;6.24;70.86
63088;BME280;49173;43.164;27.786;2024-02-15T00:50:33;100798.78;;;6.19;70.06
63088;BME280;49173;43.164;27.786;2024-02-15T00:52:58;100804.22;;;6.16;70.40
63088;BME280;49173;43.164;27.786;2024-02-15T00:55:24;100801.59;;;6.15;70.66
63088;BME280;49173;43.164;27.786;2024-02-15T00:57:49;100796.22;;;6.16;70.79
63088;BME280;49173;43.164;27.786;2024-02-15T01:00:15;100800.56;;;6.19;70.82
63088;BME280;49173;43.164;27.786;2024-02-15T01:02:40;100800.44;;;6.23;70.95
63088;BME280;49173;43.164;27.786;2024-02-15T01:05:06;100802.31;;;6.20;71.70
63088;BME280;49173;43.164;27.786;2024-02-15T01:07:32;100788.97;;;6.20;71.45
63088;BME280;49173;43.164;27.786;2024-02-15T01:09:58;100792.69;;;6.16;70.65
63088;BME280;49173;43.164;27.786;2024-02-15T01:12:24;100793.50;;;6.18;71.20
63088;BME280;49173;43.164;27.786;2024-02-15T01:14:49;100791.16;;;6.07;71.20
63088;BME280;49173;43.164;27.786;2024-02-15T01:17:15;100787.59;;;6.08;71.57
63088;BME280;49173;43.164;27.786;2024-02-15T01:19:40;100783.88;;;6.12;71.52
63088;BME280;49173;43.164;27.786;2024-02-15T01:22:07;100794.53;;;6.12;71.06
63088;BME280;49173;43.164;27.786;2024-02-15T01:24:33;100793.78;;;6.09;71.33
63088;BME280;49173;43.164;27.786;2024-02-15T01:26:58;100788.50;;;6.07;71.88
63088;BME280;49173;43.164;27.786;2024-02-15T01:29:24;100795.69;;;6.03;71.88
63088;BME280;49173;43.164;27.786;2024-02-15T01:31:51;100794.94;;;6.00;71.34
63088;BME280;49173;43.164;27.786;2024-02-15T01:34:18;100791.53;;;5.95;72.09
63088;BME280;49173;43.164;27.786;2024-02-15T01:36:47;100784.41;;;5.95;72.09
63088;BME280;49173;43.164;27.786;2024-02-15T01:39:12;100779.34;;;5.85;72.15
63088;BME280;49173;43.164;27.786;2024-02-15T01:41:38;100781.09;;;5.86;71.89
63088;BME280;49173;43.164;27.786;2024-02-15T01:44:04;100786.44;;;5.86;72.22
63088;BME280;49173;43.164;27.786;2024-02-15T01:46:31;100791.88;;;5.81;72.03
63088;BME280;49173;43.164;27.786;2024-02-15T01:48:57;100802.06;;;5.67;72.54
63088;BME280;49173;43.164;27.786;2024-02-15T01:51:23;100795.75;;;5.69;73.14
63088;BME280;49173;43.164;27.786;2024-02-15T01:53:49;100795.81;;;5.68;73.34
63088;BME280;49173;43.164;27.786;2024-02-15T01:56:15;100787.94;;;5.63;72.42
63088;BME280;49173;43.164;27.786;2024-02-15T01:58:42;100797.72;;;5.63;72.95
63088;BME280;49173;43.164;27.786;2024-02-15T02:01:08;100785.28;;;5.63;73.16
63088;BME280;49173;43.164;27.786;2024-02-15T02:03:34;100783.47;;;5.65;73.16
63088;BME280;49173;43.164;27.786;2024-02-15T02:06:00;100779.72;;;5.72;74.06
63088;BME280;49173;43.164;27.786;2024-02-15T02:08:26;100793.06;;;5.71;73.19
63088;BME280;49173;43.164;27.786;2024-02-15T02:10:52;100775.19;;;5.74;74.12
63088;BME280;49173;43.164;27.786;2024-02-15T02:13:18;100778.03;;;5.68;72.95
63088;BME280;49173;43.164;27.786;2024-02-15T02:15:44;100779.78;;;5.69;73.14
63088;BME280;49173;43.164;27.786;2024-02-15T02:18:10;100785.09;;;5.71;73.20
63088;BME280;49173;43.164;27.786;2024-02-15T02:20:35;100789.34;;;5.76;72.76
63088;BME280;49173;43.164;27.786;2024-02-15T02:23:07;100791.94;;;5.79;72.84
63088;BME280;49173;43.164;27.786;2024-02-15T02:25:36;100791.00;;;5.81;72.73
63088;BME280;49173;43.164;27.786;2024-02-15T02:28:01;100802.53;;;5.81;72.56
63088;BME280;49173;43.164;27.786;2024-02-15T02:30:27;100812.75;;;5.65;71.94
63088;BME280;49173;43.164;27.786;2024-02-15T02:32:55;100809.13;;;5.68;72.63
63088;BME280;49173;43.164;27.786;2024-02-15T02:35:22;100817.09;;;5.68;73.06
63088;BME280;49173;43.164;27.786;2024-02-15T02:37:47;100816.84;;;5.77;72.46
63088;BME280;49173;43.164;27.786;2024-02-15T02:40:13;100822.22;;;5.75;72.07
63088;BME280;49173;43.164;27.786;2024-02-15T02:42:48;100815.84;;;5.81;71.91
63088;BME280;49173;43.164;27.786;2024-02-15T02:45:14;100820.16;;;5.87;71.72
63088;BME280;49173;43.164;27.786;2024-02-15T02:47:39;100823.72;;;5.86;71.91
63088;BME280;49173;43.164;27.786;2024-02-15T02:50:05;100809.50;;;5.87;71.77
63088;BME280;49173;43.164;27.786;2024-02-15T02:52:31;100812.91;;;5.90;71.96
63088;BME280;49173;43.164;27.786;2024-02-15T02:54:56;100808.56;;;5.88;72.52
63088;BME280;49173;43.164;27.786;2024-02-15T02:57:23;100814.88;;;5.84;71.72
63088;BME280;49173;43.164;27.786;2024-02-15T02:59:48;100811.28;;;5.85;72.18
63088;BME280;49173;43.164;27.786;2024-02-15T03:02:14;100811.28;;;5.85;72.42
63088;BME280;49173;43.164;27.786;2024-02-15T03:04:39;100807.75;;;5.86;72.71
63088;BME280;49173;43.164;27.786;2024-02-15T03:07:06;100807.56;;;5.92;72.45
63088;BME280;49173;43.164;27.786;2024-02-15T03:09:31;100811.19;;;5.89;72.63
63088;BME280;49173;43.164;27.786;2024-02-15T03:11:57;100814.69;;;5.91;73.37
63088;BME280;49173;43.164;27.786;2024-02-15T03:14:23;100803.41;;;5.82;72.02
63088;BME280;49173;43.164;27.786;2024-02-15T03:16:48;100807.97;;;5.76;73.70
63088;BME280;49173;43.164;27.786;2024-02-15T03:19:14;100814.41;;;5.69;73.06
63088;BME280;49173;43.164;27.786;2024-02-15T03:21:39;100813.47;;;5.72;73.00
63088;BME280;49173;43.164;27.786;2024-02-15T03:24:06;100822.47;;;5.66;72.55
63088;BME280;49173;43.164;27.786;2024-02-15T03:26:32;100807.59;;;5.59;72.54
63088;BME280;49173;43.164;27.786;2024-02-15T03:29:04;100807.84;;;5.50;73.56
63088;BME280;49173;43.164;27.786;2024-02-15T03:31:30;100805.25;;;5.47;74.41
63088;BME280;49173;43.164;27.786;2024-02-15T03:33:58;100814.88;;;5.53;74.54
63088;BME280;49173;43.164;27.786;2024-02-15T03:36:25;100815.44;;;5.64;74.04
63088;BME280;49173;43.164;27.786;2024-02-15T03:38:52;100820.69;;;5.67;73.41
63088;BME280;49173;43.164;27.786;2024-02-15T03:41:19;100819.00;;;5.64;73.58
63088;BME280;49173;43.164;27.786;2024-02-15T03:43:45;100823.25;;;5.70;73.12
63088;BME280;49173;43.164;27.786;2024-02-15T03:46:11;100821.56;;;5.67;72.61
63088;BME280;49173;43.164;27.786;2024-02-15T03:48:41;100826.09;;;5.64;72.81
63088;BME280;49173;43.164;27.786;2024-02-15T03:51:07;100822.75;;;5.57;71.77
63088;BME280;49173;43.164;27.786;2024-02-15T03:53:34;100819.22;;;5.55;71.97
63088;BME280;49173;43.164;27.786;2024-02-15T03:56:05;100827.31;;;5.52;73.65
63088;BME280;49173;43.164;27.786;2024-02-15T03:58:32;100817.66;;;5.48;72.35
63088;BME280;49173;43.164;27.786;2024-02-15T04:00:58;100821.06;;;5.53;72.37
63088;BME280;49173;43.164;27.786;2024-02-15T04:03:24;100818.44;;;5.51;72.75
63088;BME280;49173;43.164;27.786;2024-02-15T04:05:49;100822.19;;;5.44;72.91
63088;BME280;49173;43.164;27.786;2024-02-15T04:08:15;100825.53;;;5.53;73.31
63088;BME280;49173;43.164;27.786;2024-02-15T04:10:42;100822.66;;;5.60;73.26
63088;BME280;49173;43.164;27.786;2024-02-15T04:13:07;100828.59;;;5.70;72.18
63088;BME280;49173;43.164;27.786;2024-02-15T04:15:33;100827.09;;;5.60;71.83
63088;BME280;49173;43.164;27.786;2024-02-15T04:17:59;100822.75;;;5.57;72.95
63088;BME280;49173;43.164;27.786;2024-02-15T04:20:25;100812.25;;;5.51;72.51
63088;BME280;49173;43.164;27.786;2024-02-15T04:22:51;100819.56;;;5.43;72.53
63088;BME280;49173;43.164;27.786;2024-02-15T04:25:17;100819.75;;;5.37;72.03
63088;BME280;49173;43.164;27.786;2024-02-15T04:27:44;100813.75;;;5.27;72.75
63088;BME280;49173;43.164;27.786;2024-02-15T04:30:11;100821.91;;;5.21;72.92
63088;BME280;49173;43.164;27.786;2024-02-15T04:32:37;100828.91;;;5.25;73.23
63088;BME280;49173;43.164;27.786;2024-02-15T04:35:02;100824.44;;;5.26;73.05
63088;BME280;49173;43.164;27.786;2024-02-15T04:37:29;100831.38;;;5.33;72.90
63088;BME280;49173;43.164;27.786;2024-02-15T04:39:59;100827.72;;;5.35;73.61
63088;BME280;49173;43.164;27.786;2024-02-15T04:42:33;100829.25;;;5.45;74.08
63088;BME280;49173;43.164;27.786;2024-02-15T04:45:00;100832.63;;;5.52;72.50
63088;BME280;49173;43.164;27.786;2024-02-15T04:47:25;100829.25;;;5.45;72.44
63088;BME280;49173;43.164;27.786;2024-02-15T04:49:51;100838.81;;;5.53;72.31
63088;BME280;49173;43.164;27.786;2024-02-15T04:52:16;100835.19;;;5.55;72.09
63088;BME280;49173;43.164;27.786;2024-02-15T04:54:43;100836.31;;;5.46;72.13
63088;BME280;49173;43.164;27.786;2024-02-15T04:57:09;100832.78;;;5.46;73.02
63088;BME280;49173;43.164;27.786;2024-02-15T04:59:37;100857.53;;;5.49;72.96
63088;BME280;49173;43.164;27.786;2024-02-15T05:02:02;100847.19;;;5.39;72.76
63088;BME280;49173;43.164;27.786;2024-02-15T05:04:28;100842.09;;;5.30;72.54
63088;BME280;49173;43.164;27.786;2024-02-15T05:06:53;100852.59;;;5.34;72.05
63088;BME280;49173;43.164;27.786;2024-02-15T05:09:19;100866.84;;;5.33;72.22
63088;BME280;49173;43.164;27.786;2024-02-15T05:11:44;100860.00;;;5.23;72.95
63088;BME280;49173;43.164;27.786;2024-02-15T05:14:14;100864.41;;;5.24;73.70
63088;BME280;49173;43.164;27.786;2024-02-15T05:16:45;100868.06;;;5.20;73.67
63088;BME280;49173;43.164;27.786;2024-02-15T05:19:13;100866.09;;;5.27;73.39
63088;BME280;49173;43.164;27.786;2024-02-15T05:21:38;100864.38;;;5.26;73.61
63088;BME280;49173;43.164;27.786;2024-02-15T05:24:05;100870.31;;;5.35;73.79
63088;BME280;49173;43.164;27.786;2024-02-15T05:26:30;100887.22;;;5.34;72.65
63088;BME280;49173;43.164;27.786;2024-02-15T05:28:56;100883.63;;;5.37;72.81
63088;BME280;49173;43.164;27.786;2024-02-15T05:31:21;100889.09;;;5.31;72.73
63088;BME280;49173;43.164;27.786;2024-02-15T05:33:50;100888.13;;;5.33;72.99
63088;BME280;49173;43.164;27.786;2024-02-15T05:36:17;100888.94;;;5.37;73.33
63088;BME280;49173;43.164;27.786;2024-02-15T05:38:52;100895.13;;;5.37;74.03
63088;BME280;49173;43.164;27.786;2024-02-15T05:41:18;100885.41;;;5.35;72.30
63088;BME280;49173;43.164;27.786;2024-02-15T05:43:46;100897.84;;;5.36;73.63
63088;BME280;49173;43.164;27.786;2024-02-15T05:46:13;100897.59;;;5.45;73.91
63088;BME280;49173;43.164;27.786;2024-02-15T05:48:40;100900.13;;;5.49;73.12
63088;BME280;49173;43.164;27.786;2024-02-15T05:51:06;100905.59;;;5.45;72.06
63088;BME280;49173;43.164;27.786;2024-02-15T05:53:32;100913.72;;;5.39;72.25
63088;BME280;49173;43.164;27.786;2024-02-15T05:56:10;100917.34;;;5.35;72.66
63088;BME280;49173;43.164;27.786;2024-02-15T05:58:36;100922.63;;;5.38;72.92
63088;BME280;49173;43.164;27.786;2024-02-15T06:01:02;100920.00;;;5.35;73.62
63088;BME280;49173;43.164;27.786;2024-02-15T06:03:46;100921.03;;;5.31;73.49
63088;BME280;49173;43.164;27.786;2024-02-15T06:06:13;100924.59;;;5.30;73.34
63088;BME280;49173;43.164;27.786;2024-02-15T06:08:39;100928.19;;;5.27;72.44
63088;BME280;49173;43.164;27.786;2024-02-15T06:11:04;100932.59;;;5.30;73.92
63088;BME280;49173;43.164;27.786;2024-02-15T06:13:34;100931.72;;;5.28;73.68
63088;BME280;49173;43.164;27.786;2024-02-15T06:16:00;100929.06;;;5.28;73.24
63088;BME280;49173;43.164;27.786;2024-02-15T06:18:27;100922.91;;;5.26;73.26
63088;BME280;49173;43.164;27.786;2024-02-15T06:20:54;100931.78;;;5.26;72.52
63088;BME280;49173;43.164;27.786;2024-02-15T06:23:22;100933.69;;;5.19;74.02
63088;BME280;49173;43.164;27.786;2024-02-15T06:25:48;100936.44;;;5.16;73.19
63088;BME280;49173;43.164;27.786;2024-02-15T06:28:16;100939.88;;;5.20;72.99
63088;BME280;49173;43.164;27.786;2024-02-15T06:31:00;100946.16;;;5.17;73.29
63088;BME280;49173;43.164;27.786;2024-02-15T06:33:44;100961.25;;;5.17;73.97
63088;BME280;49173;43.164;27.786;2024-02-15T06:36:28;100958.56;;;5.18;72.95
63088;BME280;49173;43.164;27.786;2024-02-15T06:39:12;100961.97;;;5.25;73.52
63088;BME280;49173;43.164;27.786;2024-02-15T06:41:56;100966.25;;;5.31;73.99
63088;BME280;49173;43.164;27.786;2024-02-15T06:44:21;100960.81;;;5.35;73.72
63088;BME280;49173;43.164;27.786;2024-02-15T06:46:49;100959.00;;;5.37;73.61
63088;BME280;49173;43.164;27.786;2024-02-15T06:49:15;100958.06;;;5.40;74.40
63088;BME280;49173;43.164;27.786;2024-02-15T06:51:41;100961.53;;;5.42;73.58
63088;BME280;49173;43.164;27.786;2024-02-15T06:54:07;100959.69;;;5.45;72.96
63088;BME280;49173;43.164;27.786;2024-02-15T06:56:39;100966.88;;;5.42;72.80
63088;BME280;49173;43.164;27.786;2024-02-15T06:59:08;100971.13;;;5.49;73.74
63088;BME280;49173;43.164;27.786;2024-02-15T07:01:35;100966.66;;;5.51;72.98
63088;BME280;49173;43.164;27.786;2024-02-15T07:04:01;100971.13;;;5.50;72.67
63088;BME280;49173;43.164;27.786;2024-02-15T07:06:28;100968.41;;;5.52;72.58
63088;BME280;49173;43.164;27.786;2024-02-15T07:08:54;100967.28;;;5.61;72.80
63088;BME280;49173;43.164;27.786;2024-02-15T07:11:22;100965.59;;;5.58;72.44
63088;BME280;49173;43.164;27.786;2024-02-15T07:13:47;100967.38;;;5.58;71.92
63088;BME280;49173;43.164;27.786;2024-02-15T07:16:13;100964.53;;;5.64;72.88
63088;BME280;49173;43.164;27.786;2024-02-15T07:18:40;100961.72;;;5.70;71.57
63088;BME280;49173;43.164;27.786;2024-02-15T07:21:06;100972.28;;;5.74;72.56
63088;BME280;49173;43.164;27.786;2024-02-15T07:23:39;100970.44;;;5.78;71.70
63088;BME280;49173;43.164;27.786;2024-02-15T07:26:06;100970.19;;;5.87;73.01
63088;BME280;49173;43.164;27.786;2024-02-15T07:28:32;100969.22;;;5.90;72.85
63088;BME280;49173;43.164;27.786;2024-02-15T07:30:58;100967.56;;;5.86;72.07
63088;BME280;49173;43.164;27.786;2024-02-15T07:33:23;100966.75;;;5.82;71.42
63088;BME280;49173;43.164;27.786;2024-02-15T07:35:49;100971.31;;;5.78;71.71
63088;BME280;49173;43.164;27.786;2024-02-15T07:38:19;100965.88;;;5.82;72.51
63088;BME280;49173;43.164;27.786;2024-02-15T07:40:48;100961.22;;;5.91;72.30
63088;BME280;49173;43.164;27.786;2024-02-15T07:43:14;100955.81;;;5.94;72.07
63088;BME280;49173;43.164;27.786;2024-02-15T07:45:40;100954.91;;;5.95;72.17
63088;BME280;49173;43.164;27.786;2024-02-15T07:48:05;100946.03;;;5.95;71.80
63088;BME280;49173;43.164;27.786;2024-02-15T07:50:31;100940.63;;;5.98;71.87
63088;BME280;49173;43.164;27.786;2024-02-15T07:52:57;100941.41;;;6.01;72.05
63088;BME280;49173;43.164;27.786;2024-02-15T07:55:23;100947.69;;;5.99;70.90
63088;BME280;49173;43.164;27.786;2024-02-15T07:57:50;100959.25;;;5.98;70.11
63088;BME280;49173;43.164;27.786;2024-02-15T08:00:15;100953.00;;;5.99;72.10
63088;BME280;49173;43.164;27.786;2024-02-15T08:02:44;100951.28;;;5.98;70.64
63088;BME280;49173;43.164;27.786;2024-02-15T08:05:10;100950.34;;;6.00;71.36
63088;BME280;49173;43.164;27.786;2024-02-15T08:07:37;100952.94;;;6.02;71.13
63088;BME280;49173;43.164;27.786;2024-02-15T08:10:05;100944.03;;;6.03;70.97
63088;BME280;49173;43.164;27.786;2024-02-15T08:12:33;100940.38;;;6.07;70.84
63088;BME280;49173;43.164;27.786;2024-02-15T08:15:01;100946.75;;;6.01;71.44
63088;BME280;49173;43.164;27.786;2024-02-15T08:17:27;100938.88;;;5.97;70.54
63088;BME280;49173;43.164;27.786;2024-02-15T08:19:54;100946.91;;;5.95;70.92
63088;BME280;49173;43.164;27.786;2024-02-15T08:22:20;100959.25;;;5.99;70.57
63088;BME280;49173;43.164;27.786;2024-02-15T08:24:52;100944.03;;;6.03;71.09
63088;BME280;49173;43.164;27.786;2024-02-15T08:27:17;100942.19;;;6.05;70.48
63088;BME280;49173;43.164;27.786;2024-02-15T08:29:43;100937.75;;;6.05;70.41
63088;BME280;49173;43.164;27.786;2024-02-15T08:32:09;100935.94;;;6.06;69.75
63088;BME280;49173;43.164;27.786;2024-02-15T08:34:35;100934.97;;;6.10;70.15
63088;BME280;49173;43.164;27.786;2024-02-15T08:37:01;100923.44;;;6.10;69.76
63088;BME280;49173;43.164;27.786;2024-02-15T08:39:28;100906.31;;;6.18;69.43
63088;BME280;49173;43.164;27.786;2024-02-15T08:41:53;100910.53;;;6.25;70.08
63088;BME280;49173;43.164;27.786;2024-02-15T08:44:19;100901.63;;;6.26;69.59
63088;BME280;49173;43.164;27.786;2024-02-15T08:46:47;100904.03;;;6.36;69.42
63088;BME280;49173;43.164;27.786;2024-02-15T08:49:13;100911.00;;;6.40;68.19
63088;BME280;49173;43.164;27.786;2024-02-15T08:51:39;100928.75;;;6.41;68.03
63088;BME280;49173;43.164;27.786;2024-02-15T08:54:04;100924.22;;;6.44;67.66
63088;BME280;49173;43.164;27.786;2024-02-15T08:56:30;100926.84;;;6.46;67.70
63088;BME280;49173;43.164;27.786;2024-02-15T08:58:55;100929.50;;;6.46;68.38
63088;BME280;49173;43.164;27.786;2024-02-15T09:01:22;100934.50;;;6.58;68.35
63088;BME280;49173;43.164;27.786;2024-02-15T09:03:49;100932.47;;;6.66;67.16
63088;BME280;49173;43.164;27.786;2024-02-15T09:06:14;100941.22;;;6.71;67.19
63088;BME280;49173;43.164;27.786;2024-02-15T09:08:40;100935.06;;;6.68;66.76
63088;BME280;49173;43.164;27.786;2024-02-15T09:11:05;100950.03;;;6.73;67.84
63088;BME280;49173;43.164;27.786;2024-02-15T09:13:32;100936.56;;;6.78;67.25
63088;BME280;49173;43.164;27.786;2024-02-15T09:16:01;100948.94;;;6.80;66.71
63088;BME280;49173;43.164;27.786;2024-02-15T09:18:26;100945.44;;;6.78;66.61
63088;BME280;49173;43.164;27.786;2024-02-15T09:20:52;100948.00;;;6.81;66.92
63088;BME280;49173;43.164;27.786;2024-02-15T09:23:23;100950.59;;;6.84;66.72
63088;BME280;49173;43.164;27.786;2024-02-15T09:25:49;100941.75;;;6.82;66.35
63088;BME280;49173;43.164;27.786;2024-02-15T09:28:17;100942.78;;;6.78;66.40
63088;BME280;49173;43.164;27.786;2024-02-15T09:30:49;100937.28;;;6.83;65.59
63088;BME280;49173;43.164;27.786;2024-02-15T09:33:19;100938.06;;;6.86;66.41
63088;BME280;49173;43.164;27.786;2024-02-15T09:35:53;100932.63;;;6.89;65.80
63088;BME280;49173;43.164;27.786;2024-02-15T09:38:20;100937.84;;;6.94;65.59
63088;BME280;49173;43.164;27.786;2024-02-15T09:40:50;100935.22;;;6.93;65.71
63088;BME280;49173;43.164;27.786;2024-02-15T09:43:16;100933.31;;;6.96;65.66
63088;BME280;49173;43.164;27.786;2024-02-15T09:45:42;100932.44;;;6.96;66.07
63088;BME280;49173;43.164;27.786;2024-02-15T09:48:07;100931.53;;;6.97;65.91
63088;BME280;49173;43.164;27.786;2024-02-15T09:50:35;100931.53;;;6.97;65.82
63088;BME280;49173;43.164;27.786;2024-02-15T09:53:02;100928.72;;;7.01;65.25
63088;BME280;49173;43.164;27.786;2024-02-15T09:55:28;100915.50;;;6.97;65.37
63088;BME280;49173;43.164;27.786;2024-02-15T09:57:57;100923.50;;;6.97;65.36
63088;BME280;49173;43.164;27.786;2024-02-15T10:00:25;100925.38;;;6.95;64.93
63088;BME280;49173;43.164;27.786;2024-02-15T10:02:51;100918.28;;;6.94;65.40
63088;BME280;49173;43.164;27.786;2024-02-15T10:05:20;100911.16;;;6.94;64.76
63088;BME280;49173;43.164;27.786;2024-02-15T10:07:46;100919.16;;;6.94;65.19
63088;BME280;49173;43.164;27.786;2024-02-15T10:10:22;100903.03;;;6.97;65.04
63088;BME280;49173;43.164;27.786;2024-02-15T10:12:51;100898.50;;;7.01;65.25
63088;BME280;49173;43.164;27.786;2024-02-15T10:18:02;100889.50;;;7.03;65.03
63088;BME280;49173;43.164;27.786;2024-02-15T10:20:29;100884.97;;;7.07;64.86
63088;BME280;49173;43.164;27.786;2024-02-15T10:25:23;100869.69;;;7.12;64.93
63088;BME280;49173;43.164;27.786;2024-02-15T10:27:51;100870.50;;;7.14;64.71
63088;BME280;49173;43.164;27.786;2024-02-15T10:30:19;100871.31;;;7.16;64.84
63088;BME280;49173;43.164;27.786;2024-02-15T10:32:50;100863.22;;;7.19;64.47
63088;BME280;49173;43.164;27.786;2024-02-15T10:35:19;100864.84;;;7.23;64.73
63088;BME280;49173;43.164;27.786;2024-02-15T10:37:47;100861.03;;;7.30;64.77
63088;BME280;49173;43.164;27.786;2024-02-15T10:40:17;100851.81;;;7.40;64.71
63088;BME280;49173;43.164;27.786;2024-02-15T10:42:44;100855.22;;;7.44;63.91
63088;BME280;49173;43.164;27.786;2024-02-15T10:45:11;100861.31;;;7.49;64.13
63088;BME280;49173;43.164;27.786;2024-02-15T10:47:37;100834.53;;;7.51;64.06
63088;BME280;49173;43.164;27.786;2024-02-15T10:50:04;100838.00;;;7.54;63.91
63088;BME280;49173;43.164;27.786;2024-02-15T10:52:35;100834.19;;;7.60;64.23
63088;BME280;49173;43.164;27.786;2024-02-15T10:55:05;100839.44;;;7.63;64.14
63088;BME280;49173;43.164;27.786;2024-02-15T10:57:37;100841.13;;;7.65;63.77
63088;BME280;49173;43.164;27.786;2024-02-15T11:00:05;100836.50;;;7.70;63.54
63088;BME280;49173;43.164;27.786;2024-02-15T11:02:42;100833.44;;;7.81;63.61
63088;BME280;49173;43.164;27.786;2024-02-15T11:05:08;100829.75;;;7.85;63.30
63088;BME280;49173;43.164;27.786;2024-02-15T11:07:53;100828.81;;;7.86;63.05
63088;BME280;49173;43.164;27.786;2024-02-15T11:10:20;100823.41;;;7.88;63.53
63088;BME280;49173;43.164;27.786;2024-02-15T11:12:47;100818.91;;;7.90;63.32
63088;BME280;49173;43.164;27.786;2024-02-15T11:15:12;100819.78;;;7.89;63.22
63088;BME280;49173;43.164;27.786;2024-02-15T11:17:58;100816.03;;;7.94;63.28
63088;BME280;49173;43.164;27.786;2024-02-15T11:23:02;100818.41;;;8.02;62.72
63088;BME280;49173;43.164;27.786;2024-02-15T11:25:32;100811.03;;;8.09;63.82
63088;BME280;49173;43.164;27.786;2024-02-15T11:30:44;100834.34;;;8.29;63.50
63088;BME280;49173;43.164;27.786;2024-02-15T11:33:29;100837.63;;;8.37;62.87
63088;BME280;49173;43.164;27.786;2024-02-15T11:36:03;100840.38;;;8.35;62.29
63088;BME280;49173;43.164;27.786;2024-02-15T11:38:30;100833.06;;;8.40;62.68
63088;BME280;49173;43.164;27.786;2024-02-15T11:46:17;100823.56;;;8.55;62.26
63088;BME280;49173;43.164;27.786;2024-02-15T11:48:52;100830.72;;;8.55;62.74
63088;BME280;49173;43.164;27.786;2024-02-15T11:51:25;100818.16;;;8.57;62.39
63088;BME280;49173;43.164;27.786;2024-02-15T11:53:58;100819.81;;;8.59;61.93
63088;BME280;49173;43.164;27.786;2024-02-15T11:59:13;100819.88;;;8.58;61.72
63088;BME280;49173;43.164;27.786;2024-02-15T12:01:57;100817.97;;;8.61;62.66
63088;BME280;49173;43.164;27.786;2024-02-15T12:04:42;100803.72;;;8.61;62.18
63088;BME280;49173;43.164;27.786;2024-02-15T12:07:42;100812.31;;;8.69;62.21
63088;BME280;49173;43.164;27.786;2024-02-15T12:10:26;100807.75;;;8.71;61.71
63088;BME280;49173;43.164;27.786;2024-02-15T12:13:10;100816.81;;;8.68;61.73
63088;BME280;49173;43.164;27.786;2024-02-15T12:15:58;100812.41;;;8.66;61.52
63088;BME280;49173;43.164;27.786;2024-02-15T12:18:57;100807.94;;;8.66;62.00
63088;BME280;49173;43.164;27.786;2024-02-15T12:21:26;100815.09;;;8.66;62.08
63088;BME280;49173;43.164;27.786;2024-02-15T12:23:52;100807.84;;;8.69;61.61
63088;BME280;49173;43.164;27.786;2024-02-15T12:26:21;100809.56;;;8.70;61.94
63088;BME280;49173;43.164;27.786;2024-02-15T12:28:52;100817.66;;;8.69;61.37
63088;BME280;49173;43.164;27.786;2024-02-15T12:31:23;100819.47;;;8.68;61.76
63088;BME280;49173;43.164;27.786;2024-02-15T12:34:04;100821.94;;;8.73;62.57
63088;BME280;49173;43.164;27.786;2024-02-15T12:36:33;100823.09;;;8.89;61.93
63088;BME280;49173;43.164;27.786;2024-02-15T12:39:03;100820.09;;;8.97;61.20
63088;BME280;49173;43.164;27.786;2024-02-15T12:41:39;100828.06;;;8.98;61.41
63088;BME280;49173;43.164;27.786;2024-02-15T12:44:07;100823.41;;;9.03;60.85
63088;BME280;49173;43.164;27.786;2024-02-15T12:46:34;100818.06;;;9.02;61.11
63088;BME280;49173;43.164;27.786;2024-02-15T12:49:06;100822.56;;;9.01;61.28
63088;BME280;49173;43.164;27.786;2024-02-15T12:51:31;100820.41;;;9.11;60.06
63088;BME280;49173;43.164;27.786;2024-02-15T12:54:07;100814.19;;;9.11;60.49
63088;BME280;49173;43.164;27.786;2024-02-15T12:56:49;100819.00;;;9.23;61.19
63088;BME280;49173;43.164;27.786;2024-02-15T12:59:18;100825.84;;;9.30;61.17
63088;BME280;49173;43.164;27.786;2024-02-15T13:01:46;100816.94;;;9.29;60.47
63088;BME280;49173;43.164;27.786;2024-02-15T13:04:24;100813.78;;;9.20;60.55
63088;BME280;49173;43.164;27.786;2024-02-15T13:06:51;100823.31;;;9.27;60.54
63088;BME280;49173;43.164;27.786;2024-02-15T13:09:17;100821.16;;;9.35;61.65
63088;BME280;49173;43.164;27.786;2024-02-15T13:11:44;100821.22;;;9.33;61.12
63088;BME280;49173;43.164;27.786;2024-02-15T13:14:12;100820.22;;;9.36;60.67